Time;durP1;ratioP1;P1;durP2;ratioP2;P2;SDS_P1;SDS_P2;PMS_P1;PMS_P2;Temp;Humidity;BMP_temperature;BMP_pressure;BME280_temperature;BME280_humidity;BME280_pressure;Samples;Min_cycle;Max_cycle;Signal;HPM_P1;HPM_P2
2022/08/26 00:01:12;;;;;;;33.95;29.48;;;18.20;99.90;;;;;;5062781;28;20463;-77
2022/08/26 00:03:40;;;;;;;32.25;28.92;;;18.20;99.90;;;;;;5040864;28;20094;-77
2022/08/26 00:06:08;;;;;;;36.45;27.80;;;18.20;99.90;;;;;;5038237;28;20049;-77
2022/08/26 00:08:37;;;;;;;30.98;27.55;;;18.20;99.90;;;;;;5061224;28;20041;-77
2022/08/26 00:11:05;;;;;;;42.05;28.98;;;18.20;99.90;;;;;;5062686;28;20143;-77
2022/08/26 00:13:32;;;;;;;31.27;27.30;;;18.20;99.90;;;;;;5072777;28;20091;-75
2022/08/26 00:16:00;;;;;;;37.28;31.50;;;18.20;99.90;;;;;;5072943;28;20067;-77
2022/08/26 00:18:27;;;;;;;31.52;28.27;;;18.20;99.90;;;;;;5070594;28;20049;-77
2022/08/26 00:20:55;;;;;;;34.92;27.95;;;18.20;99.90;;;;;;5072407;28;20041;-76
2022/08/26 00:23:22;;;;;;;32.63;28.88;;;18.10;99.90;;;;;;5070363;28;20037;-77
2022/08/26 00:25:51;;;;;;;36.65;28.88;;;18.10;99.90;;;;;;5055029;28;20041;-76
2022/08/26 00:28:18;;;;;;;33.63;29.95;;;18.10;99.90;;;;;;5054606;28;20122;-77
2022/08/26 00:30:48;;;;;;;34.78;29.63;;;18.10;99.90;;;;;;5054124;28;20045;-77
2022/08/26 00:33:16;;;;;;;33.78;29.42;;;18.10;99.90;;;;;;5054412;28;20049;-77
2022/08/26 00:35:43;;;;;;;33.47;29.23;;;18.10;99.90;;;;;;5054633;28;20045;-77
2022/08/26 00:38:11;;;;;;;32.72;29.30;;;18.10;99.90;;;;;;5054051;28;20524;-77
2022/08/26 00:40:44;;;;;;;33.90;27.88;;;18.00;99.90;;;;;;5054503;28;20385;-77
2022/08/26 00:43:13;;;;;;;32.20;28.20;;;18.00;99.90;;;;;;5054123;28;20064;-76
2022/08/26 00:45:44;;;;;;;34.78;26.80;;;17.90;99.90;;;;;;5053809;28;20111;-77
2022/08/26 00:48:13;;;;;;;30.98;27.67;;;17.80;99.90;;;;;;5044397;28;20071;-77
2022/08/26 00:50:49;;;;;;;35.70;29.40;;;17.90;99.90;;;;;;5035278;28;20041;-78
2022/08/26 00:53:21;;;;;;;35.03;27.38;;;17.80;99.90;;;;;;5035030;28;20385;-77
2022/08/26 00:55:52;;;;;;;34.25;27.58;;;17.80;99.90;;;;;;5034186;28;20158;-78
2022/08/26 00:58:24;;;;;;;33.92;26.75;;;17.90;99.90;;;;;;5036196;28;20041;-77
2022/08/26 01:00:52;;;;;;;30.88;26.30;;;17.90;99.90;;;;;;5053880;28;20432;-77
2022/08/26 01:03:24;;;;;;;38.90;27.92;;;17.80;99.90;;;;;;5036046;28;20053;-77
2022/08/26 01:05:54;;;;;;;30.17;27.00;;;17.80;99.90;;;;;;5054675;28;20440;-77
2022/08/26 01:08:21;;;;;;;33.53;27.45;;;17.80;99.90;;;;;;5053827;28;20045;-77
2022/08/26 01:10:49;;;;;;;34.45;28.02;;;17.80;99.90;;;;;;5036002;28;20049;-76
2022/08/26 01:13:18;;;;;;;34.28;28.65;;;17.70;99.90;;;;;;5053146;28;20048;-77
2022/08/26 01:15:49;;;;;;;32.65;29.08;;;17.70;99.90;;;;;;5053526;28;20496;-77
2022/08/26 01:18:17;;;;;;;32.40;29.02;;;17.70;99.90;;;;;;5053323;28;20061;-77
2022/08/26 01:20:54;;;;;;;39.33;28.08;;;17.80;99.90;;;;;;5055138;28;20095;-76
2022/08/26 01:23:26;;;;;;;40.80;28.98;;;17.70;99.90;;;;;;5055242;28;20041;-77
2022/08/26 01:25:59;;;;;;;38.30;29.80;;;17.70;99.90;;;;;;5037346;28;20041;-76
2022/08/26 01:28:31;;;;;;;35.15;28.13;;;17.70;99.90;;;;;;5055037;28;20060;-77
2022/08/26 01:31:01;;;;;;;34.38;27.55;;;17.70;99.90;;;;;;5054702;28;20381;-76
2022/08/26 01:33:34;;;;;;;36.28;26.63;;;17.80;99.90;;;;;;5054084;28;20114;-77
2022/08/26 01:36:02;;;;;;;33.55;26.77;;;17.70;99.90;;;;;;5054006;28;20044;-77
2022/08/26 01:38:31;;;;;;;28.95;25.95;;;17.70;99.90;;;;;;5053018;28;20064;-77
2022/08/26 01:40:59;;;;;;;33.90;27.05;;;17.70;99.90;;;;;;5053558;28;20036;-76
2022/08/26 01:43:29;;;;;;;36.38;27.13;;;17.70;99.90;;;;;;5053259;28;20099;-77
2022/08/26 01:45:56;;;;;;;34.40;26.52;;;17.70;99.90;;;;;;5053393;28;20044;-77
2022/08/26 01:48:27;;;;;;;35.42;27.63;;;17.70;99.90;;;;;;5041460;28;20081;-77
2022/08/26 01:50:56;;;;;;;32.92;27.60;;;17.70;99.90;;;;;;5033294;28;20042;-77
2022/08/26 01:53:24;;;;;;;34.10;27.00;;;17.70;99.90;;;;;;5037473;28;20078;-77
2022/08/26 01:55:57;;;;;;;37.53;28.30;;;17.60;99.90;;;;;;5053265;28;20048;-77
2022/08/26 01:58:34;;;;;;;45.50;31.27;;;17.70;99.90;;;;;;5053184;28;20041;-77
2022/08/26 02:01:02;;;;;;;43.08;31.38;;;17.60;99.90;;;;;;5053064;28;20492;-77
2022/08/26 02:03:30;;;;;;;40.65;32.33;;;17.50;99.90;;;;;;5052518;28;20486;-77
2022/08/26 02:06:02;;;;;;;37.95;32.83;;;17.60;99.90;;;;;;5035502;28;20052;-76
2022/08/26 02:08:36;;;;;;;40.28;30.67;;;17.50;99.90;;;;;;5053183;28;20526;-77
2022/08/26 02:11:05;;;;;;;40.03;30.73;;;17.50;99.90;;;;;;5035325;28;20094;-77
2022/08/26 02:13:37;;;;;;;42.72;30.73;;;17.50;99.90;;;;;;5052610;28;20065;-77
2022/08/26 02:16:05;;;;;;;36.45;29.35;;;17.50;99.90;;;;;;5052843;28;20045;-77
2022/08/26 02:18:35;;;;;;;34.00;28.83;;;17.50;99.90;;;;;;5052872;28;20045;-77
2022/08/26 02:21:03;;;;;;;35.17;28.10;;;17.50;99.90;;;;;;5052987;28;20083;-76
2022/08/26 02:23:30;;;;;;;31.23;27.95;;;17.40;99.90;;;;;;5052829;28;20476;-76
2022/08/26 02:26:03;;;;;;;31.08;27.48;;;17.40;99.90;;;;;;5052881;28;20056;-76
2022/08/26 02:28:37;;;;;;;30.88;27.40;;;17.40;99.90;;;;;;5052858;28;20069;-77
2022/08/26 02:31:04;;;;;;;31.65;28.30;;;17.30;99.90;;;;;;5052977;28;20095;-77
2022/08/26 02:33:32;;;;;;;33.65;29.58;;;17.40;99.90;;;;;;5052826;28;20041;-77
2022/08/26 02:35:59;;;;;;;38.22;32.13;;;17.40;99.90;;;;;;5052684;28;20056;-77
2022/08/26 02:38:28;;;;;;;41.85;33.70;;;17.40;99.90;;;;;;5052637;28;20053;-77
2022/08/26 02:40:55;;;;;;;42.20;34.55;;;17.50;99.90;;;;;;5052825;28;20045;-77
2022/08/26 02:43:23;;;;;;;47.40;36.42;;;17.40;99.90;;;;;;5052768;28;20040;-77
2022/08/26 02:45:51;;;;;;;42.03;33.70;;;17.40;99.90;;;;;;5052955;28;20110;-77
2022/08/26 02:48:21;;;;;;;42.85;34.25;;;17.40;99.90;;;;;;5052689;28;20067;-77
2022/08/26 02:50:48;;;;;;;41.03;34.42;;;17.40;99.90;;;;;;5052513;28;20041;-77
2022/08/26 02:53:16;;;;;;;46.75;33.20;;;17.40;99.90;;;;;;5052547;28;20123;-77
2022/08/26 02:55:43;;;;;;;42.70;31.83;;;17.40;99.90;;;;;;5034760;28;20037;-77
2022/08/26 02:58:11;;;;;;;40.00;30.50;;;17.40;99.90;;;;;;5052714;28;20080;-77
2022/08/26 03:00:39;;;;;;;40.38;32.97;;;17.40;99.90;;;;;;5055072;28;20506;-77
2022/08/26 03:03:07;;;;;;;41.20;32.85;;;17.30;99.90;;;;;;5056146;28;20392;-77
2022/08/26 03:05:35;;;;;;;41.35;33.95;;;17.40;99.90;;;;;;5056363;28;20136;-76
2022/08/26 03:08:03;;;;;;;38.67;33.47;;;17.30;99.90;;;;;;5056086;28;20061;-77
2022/08/26 03:10:31;;;;;;;42.47;33.88;;;17.30;99.90;;;;;;5038392;28;20136;-77
2022/08/26 03:12:59;;;;;;;45.28;33.17;;;17.30;99.90;;;;;;5055922;28;20041;-77
2022/08/26 03:15:27;;;;;;;44.40;35.55;;;17.30;99.90;;;;;;5057933;28;20106;-77
2022/08/26 03:17:55;;;;;;;43.35;33.70;;;17.30;99.90;;;;;;5060991;28;20512;-77
2022/08/26 03:20:24;;;;;;;38.97;32.65;;;17.20;99.90;;;;;;5056168;28;20073;-77
2022/08/26 03:22:52;;;;;;;40.40;35.95;;;17.20;99.90;;;;;;5055241;28;20088;-77
2022/08/26 03:25:21;;;;;;;41.08;35.28;;;17.20;99.90;;;;;;5056158;28;20048;-77
2022/08/26 03:27:48;;;;;;;40.88;33.13;;;17.30;99.90;;;;;;5056074;28;20068;-77
2022/08/26 03:33:02;;;;;;;41.33;34.88;;;17.20;99.90;;;;;;5059222;28;20032;-77
2022/08/26 03:35:31;;;;;;;41.65;34.65;;;17.20;99.90;;;;;;5060536;28;20116;-77
2022/08/26 03:37:59;;;;;;;39.90;33.83;;;17.30;99.90;;;;;;5060150;28;20072;-79
2022/08/26 03:40:26;;;;;;;37.72;33.33;;;17.30;99.90;;;;;;5059195;28;20041;-79
2022/08/26 03:42:53;;;;;;;42.67;33.28;;;17.30;99.90;;;;;;5059582;28;20044;-78
2022/08/26 03:45:21;;;;;;;41.47;32.47;;;17.30;99.90;;;;;;5059290;28;20103;-78
2022/08/26 03:47:49;;;;;;;36.60;30.50;;;17.30;99.90;;;;;;5053257;28;20045;-78
2022/08/26 03:50:18;;;;;;;45.25;32.20;;;17.30;99.90;;;;;;5045508;28;20065;-79
2022/08/26 03:52:47;;;;;;;40.55;32.55;;;17.30;99.90;;;;;;5059172;28;20045;-79
2022/08/26 03:55:15;;;;;;;45.25;33.92;;;17.40;99.90;;;;;;5058772;28;20041;-79
2022/08/26 03:57:42;;;;;;;43.08;35.65;;;17.30;99.90;;;;;;5059342;28;20053;-79
2022/08/26 04:00:13;;;;;;;39.33;34.50;;;17.30;99.90;;;;;;5041206;28;20079;-79
2022/08/26 04:02:42;;;;;;;41.88;35.08;;;17.30;99.90;;;;;;5058712;28;20037;-79
2022/08/26 04:05:10;;;;;;;42.47;33.10;;;17.30;99.90;;;;;;5058172;28;20036;-78
2022/08/26 04:07:38;;;;;;;41.95;34.10;;;17.30;99.90;;;;;;5058414;28;20049;-79
2022/08/26 04:10:08;;;;;;;45.00;33.78;;;17.30;99.90;;;;;;5056938;28;20060;-78
2022/08/26 04:12:37;;;;;;;38.78;30.98;;;17.30;99.90;;;;;;5039495;28;20071;-78
2022/08/26 04:15:05;;;;;;;35.83;32.00;;;17.30;99.90;;;;;;5057882;28;20043;-78
2022/08/26 04:17:33;;;;;;;39.80;31.85;;;17.30;99.90;;;;;;5057120;28;20052;-79
2022/08/26 04:20:00;;;;;;;42.05;32.97;;;17.30;99.90;;;;;;5057701;28;20091;-78
2022/08/26 04:22:28;;;;;;;40.20;34.03;;;17.30;99.90;;;;;;5057833;28;20108;-78
2022/08/26 04:24:55;;;;;;;42.10;32.53;;;17.40;99.90;;;;;;5058124;28;20472;-78
2022/08/26 04:27:24;;;;;;;38.88;32.17;;;17.40;99.90;;;;;;5057844;28;20122;-79
2022/08/26 04:29:51;;;;;;;37.35;30.95;;;17.50;99.90;;;;;;5040213;28;20056;-79
2022/08/26 04:32:19;;;;;;;37.58;31.70;;;17.50;99.90;;;;;;5059582;28;20079;-79
2022/08/26 04:34:46;;;;;;;42.40;32.03;;;17.50;99.90;;;;;;5061777;28;20045;-79
2022/08/26 04:37:18;;;;;;;37.42;31.02;;;17.50;99.90;;;;;;5057778;28;20044;-79
2022/08/26 04:39:45;;;;;;;38.33;31.08;;;17.60;99.90;;;;;;5058847;28;20072;-79
2022/08/26 04:42:14;;;;;;;37.55;29.70;;;17.70;99.90;;;;;;5057437;28;20135;-79
2022/08/26 04:44:42;;;;;;;38.50;29.80;;;17.70;99.90;;;;;;5056930;28;20472;-79
2022/08/26 04:47:10;;;;;;;34.17;27.77;;;17.80;99.90;;;;;;5056740;28;20052;-79
2022/08/26 04:49:37;;;;;;;43.60;28.55;;;17.80;99.90;;;;;;5057725;28;20064;-79
2022/08/26 04:52:04;;;;;;;48.78;30.25;;;17.80;99.90;;;;;;5058481;28;20049;-79
2022/08/26 04:54:32;;;;;;;41.33;32.38;;;17.80;99.90;;;;;;5057467;28;20170;-79
2022/08/26 04:56:59;;;;;;;37.22;29.65;;;17.80;99.90;;;;;;5057419;28;20036;-79
2022/08/26 04:59:26;;;;;;;37.78;27.48;;;17.90;99.90;;;;;;5057354;28;20044;-79
2022/08/26 05:01:58;;;;;;;29.13;26.23;;;18.00;99.90;;;;;;5057173;28;20523;-79
2022/08/26 05:04:25;;;;;;;28.40;25.05;;;18.10;99.90;;;;;;5056896;28;20037;-80
2022/08/26 05:06:52;;;;;;;27.77;24.90;;;18.10;99.90;;;;;;5056529;28;20110;-79
2022/08/26 05:09:20;;;;;;;28.67;23.95;;;18.20;99.90;;;;;;5038463;28;20049;-79
2022/08/26 05:11:47;;;;;;;27.60;24.25;;;18.30;99.90;;;;;;5057180;28;20037;-79
2022/08/26 05:14:15;;;;;;;28.02;23.75;;;18.50;99.90;;;;;;5057211;28;20116;-79
2022/08/26 05:16:42;;;;;;;27.70;23.05;;;18.50;99.90;;;;;;5056511;28;20079;-79
2022/08/26 05:19:11;;;;;;;24.85;22.30;;;18.60;99.90;;;;;;5039179;28;20056;-79
2022/08/26 05:21:38;;;;;;;28.60;23.20;;;18.70;99.90;;;;;;5057029;28;20045;-79
2022/08/26 05:24:06;;;;;;;29.65;24.02;;;18.70;99.90;;;;;;5056798;28;20116;-79
2022/08/26 05:26:33;;;;;;;26.13;23.35;;;18.80;99.90;;;;;;5056844;28;20044;-79
2022/08/26 05:29:01;;;;;;;28.05;23.27;;;18.90;99.90;;;;;;5057695;28;20044;-79
2022/08/26 05:31:31;;;;;;;30.80;25.20;;;18.90;99.90;;;;;;5056494;28;20055;-79
2022/08/26 05:33:58;;;;;;;29.73;23.17;;;19.00;99.90;;;;;;5056753;28;20119;-79
2022/08/26 05:36:29;;;;;;;28.60;23.48;;;19.10;99.90;;;;;;5056957;28;20454;-79
2022/08/26 05:38:56;;;;;;;30.85;23.90;;;19.10;99.90;;;;;;5056858;28;20490;-79
2022/08/26 05:41:27;;;;;;;26.48;23.67;;;19.10;99.90;;;;;;5059984;28;20063;-78
2022/08/26 05:43:55;;;;;;;27.70;22.50;;;19.20;99.90;;;;;;5064741;28;20112;-77
2022/08/26 05:46:23;;;;;;;28.63;24.00;;;19.40;99.90;;;;;;5058243;28;20044;-79
2022/08/26 05:48:51;;;;;;;25.08;21.85;;;19.60;99.90;;;;;;5057025;28;20033;-79
2022/08/26 05:51:18;;;;;;;24.80;21.75;;;19.80;99.90;;;;;;5057357;28;20051;-79
2022/08/26 05:53:47;;;;;;;23.00;20.50;;;20.00;99.90;;;;;;5056256;28;20049;-79
2022/08/26 05:56:15;;;;;;;27.52;20.30;;;20.40;99.90;;;;;;5056302;28;20055;-78
2022/08/26 05:58:43;;;;;;;22.30;19.33;;;20.70;99.90;;;;;;5056487;28;20416;-79
2022/08/26 06:01:13;;;;;;;23.27;18.60;;;21.00;99.90;;;;;;5056473;28;20055;-78
2022/08/26 06:03:43;;;;;;;21.20;17.85;;;21.20;99.90;;;;;;5056528;28;20100;-79
2022/08/26 06:06:14;;;;;;;22.27;17.55;;;21.40;99.90;;;;;;5056360;28;20048;-79
2022/08/26 06:08:42;;;;;;;18.85;16.80;;;21.50;99.90;;;;;;5056302;28;20040;-78
2022/08/26 06:11:14;;;;;;;23.02;18.45;;;21.60;99.90;;;;;;5054776;28;20041;-79
2022/08/26 06:13:41;;;;;;;27.25;17.52;;;21.70;99.90;;;;;;5056117;28;20041;-79
2022/08/26 06:16:16;;;;;;;20.77;16.77;;;21.80;99.90;;;;;;5056170;28;20154;-78
2022/08/26 06:18:46;;;;;;;18.20;15.38;;;21.80;99.90;;;;;;5055890;28;20076;-78
2022/08/26 06:21:17;;;;;;;19.17;16.25;;;21.90;99.90;;;;;;5055507;28;20091;-78
2022/08/26 06:26:28;;;;;;;21.55;18.05;;;21.90;99.90;;;;;;4995636;28;20053;-78
2022/08/26 06:28:55;;;;;;;22.23;18.63;;;21.90;99.90;;;;;;5039231;28;20048;-79
2022/08/26 06:31:24;;;;;;;20.23;18.13;;;22.10;99.90;;;;;;5038776;28;20115;-79
2022/08/26 06:33:52;;;;;;;23.48;17.85;;;22.20;99.90;;;;;;5050305;28;20029;-78
2022/08/26 06:36:21;;;;;;;21.23;18.92;;;22.40;99.90;;;;;;5042981;28;20045;-79
2022/08/26 06:38:49;;;;;;;24.92;18.52;;;22.80;99.90;;;;;;5060091;28;20053;-79
2022/08/26 06:41:19;;;;;;;25.48;17.83;;;23.20;99.90;;;;;;5048378;28;20045;-78
2022/08/26 06:43:48;;;;;;;20.42;17.13;;;23.60;99.90;;;;;;5039613;28;20104;-78
2022/08/26 06:46:18;;;;;;;25.25;18.42;;;23.80;99.90;;;;;;5067137;28;20041;-77
2022/08/26 06:48:46;;;;;;;26.50;18.30;;;24.00;99.90;;;;;;5062525;28;20103;-79
2022/08/26 06:51:15;;;;;;;24.33;18.85;;;24.30;99.90;;;;;;5058869;28;20041;-81
2022/08/26 06:53:45;;;;;;;22.45;19.63;;;24.50;99.90;;;;;;5057033;28;20103;-80
2022/08/26 06:56:15;;;;;;;24.17;19.25;;;24.60;99.90;;;;;;5061836;28;20128;-80
2022/08/26 06:58:42;;;;;;;28.58;18.85;;;24.50;99.90;;;;;;5059192;28;20052;-80
2022/08/26 07:01:20;;;;;;;24.77;18.98;;;24.60;99.90;;;;;;5059523;28;20722;-79
2022/08/26 07:03:49;;;;;;;24.50;20.35;;;24.50;99.90;;;;;;5075542;28;20048;-78
2022/08/26 07:06:18;;;;;;;29.65;21.05;;;24.70;99.90;;;;;;5081303;28;20048;-78
2022/08/26 07:08:45;;;;;;;28.13;20.52;;;25.00;99.90;;;;;;5076563;28;20076;-78
2022/08/26 07:11:12;;;;;;;31.30;21.23;;;25.20;1.00;;;;;;5085553;28;20048;-77
2022/08/26 07:13:40;;;;;;;27.40;20.98;;;25.50;1.00;;;;;;5068307;28;20063;-79
2022/08/26 07:16:11;;;;;;;28.15;21.98;;;25.60;1.00;;;;;;5058996;28;20041;-80
2022/08/26 07:18:42;;;;;;;30.70;23.13;;;25.80;1.00;;;;;;5059147;28;20047;-79
2022/08/26 07:21:13;;;;;;;29.48;22.25;;;26.00;1.00;;;;;;5065526;28;20136;-79
2022/08/26 07:23:40;;;;;;;37.22;24.27;;;26.00;1.00;;;;;;5078368;28;20045;-79
2022/08/26 07:26:10;;;;;;;31.42;23.02;;;25.90;99.90;;;;;;5075041;28;20072;-79
2022/08/26 07:28:38;;;;;;;29.48;23.52;;;25.90;30.40;;;;;;5057017;28;20080;-79
2022/08/26 07:31:07;;;;;;;36.92;23.90;;;26.10;1.00;;;;;;5056955;28;20037;-78
2022/08/26 07:33:34;;;;;;;35.17;22.85;;;26.30;1.00;;;;;;5057332;28;20040;-77
2022/08/26 07:36:04;;;;;;;33.28;23.25;;;26.60;1.00;;;;;;5057400;28;20106;-78
2022/08/26 07:38:31;;;;;;;30.75;22.98;;;26.50;99.90;;;;;;5042535;28;20057;-77
2022/08/26 07:40:59;;;;;;;31.27;22.58;;;26.50;99.90;;;;;;5056496;28;20045;-79
2022/08/26 07:43:27;;;;;;;35.55;23.70;;;26.50;1.00;;;;;;5055385;28;20036;-78
2022/08/26 07:45:54;;;;;;;35.72;24.10;;;26.60;99.90;;;;;;5055477;28;20033;-77
2022/08/26 07:48:22;;;;;;;33.25;23.10;;;26.60;4.00;;;;;;5055169;28;20128;-80
2022/08/26 07:50:49;;;;;;;32.75;24.58;;;26.40;99.90;;;;;;5057332;28;20052;-78
2022/08/26 07:53:18;;;;;;;33.28;24.75;;;26.40;1.00;;;;;;5057163;28;20037;-79
2022/08/26 07:55:46;;;;;;;33.25;23.15;;;26.40;99.90;;;;;;5055726;28;20040;-78
2022/08/26 07:58:13;;;;;;;41.35;25.85;;;26.50;1.00;;;;;;5056518;28;20105;-78
2022/08/26 08:00:40;;;;;;;31.17;24.17;;;26.70;1.00;;;;;;5064302;28;20051;-78
2022/08/26 08:03:08;;;;;;;40.72;29.83;;;26.80;99.90;;;;;;5057734;28;20040;-79
2022/08/26 08:05:36;;;;;;;34.13;23.75;;;27.20;1.00;;;;;;5069712;28;20041;-78
2022/08/26 08:08:06;;;;;;;33.40;21.95;;;27.20;1.00;;;;;;5079239;28;20051;-79
2022/08/26 08:10:36;;;;;;;33.47;23.08;;;27.30;1.00;;;;;;5079759;28;20067;-79
2022/08/26 08:13:05;;;;;;;37.15;24.05;;;27.60;1.00;;;;;;5064443;28;20178;-77
2022/08/26 08:15:36;;;;;;;36.28;23.85;;;27.60;99.90;;;;;;5057267;28;20041;-79
2022/08/26 08:18:05;;;;;;;35.10;22.52;;;27.80;99.90;;;;;;5057888;28;20037;-78
2022/08/26 08:20:33;;;;;;;30.95;22.65;;;28.00;99.90;;;;;;5058368;28;20041;-79
2022/08/26 08:23:02;;;;;;;34.90;24.67;;;28.00;99.90;;;;;;5060144;28;20117;-78
2022/08/26 08:25:31;;;;;;;35.95;21.58;;;28.00;99.90;;;;;;5061678;28;20124;-77
2022/08/26 08:27:59;;;;;;;33.88;25.38;;;28.00;99.90;;;;;;5049149;28;20408;-74
2022/08/26 08:30:28;;;;;;;28.90;21.67;;;28.10;1.00;;;;;;5057404;28;20051;-75
2022/08/26 08:32:55;;;;;;;26.67;21.20;;;28.10;1.00;;;;;;5056981;28;20140;-76
2022/08/26 08:35:25;;;;;;;29.90;20.70;;;28.00;1.00;;;;;;5054728;28;20603;-76
2022/08/26 08:37:54;;;;;;;30.60;22.35;;;27.70;1.00;;;;;;5051987;28;20044;-75
2022/08/26 08:40:23;;;;;;;28.23;20.80;;;27.60;1.00;;;;;;5055028;28;20048;-76
2022/08/26 08:42:57;;;;;;;37.72;21.70;;;27.90;1.00;;;;;;5053901;28;20455;-76
2022/08/26 08:45:33;;;;;;;26.90;20.17;;;28.10;1.00;;;;;;5053693;28;20076;-77
2022/08/26 08:48:04;;;;;;;;;;;27.90;1.00;;;;;;5054912;28;20072;-76
2022/08/26 08:50:35;;;;;;;33.92;22.67;;;28.00;99.90;;;;;;5053883;28;20291;-77
2022/08/26 08:53:09;;;;;;;29.83;20.80;;;28.10;1.00;;;;;;5053756;28;20041;-77
2022/08/26 08:55:48;;;;;;;31.55;21.00;;;28.50;99.90;;;;;;5053802;28;20032;-76
2022/08/26 08:58:19;;;;;;;31.92;20.98;;;28.60;99.90;;;;;;5053954;28;20051;-77
2022/08/26 09:00:53;;;;;;;34.10;21.90;;;28.60;99.90;;;;;;5056357;28;20091;-76
2022/08/26 09:03:33;;;;;;;28.90;20.00;;;28.60;1.00;;;;;;5053598;28;20454;-76
2022/08/26 09:06:01;;;;;;;48.78;21.65;;;28.80;1.00;;;;;;5053490;28;20435;-76
2022/08/26 09:08:35;;;;;;;27.08;20.17;;;29.00;1.00;;;;;;5053698;28;20099;-77
2022/08/26 09:11:04;;;;;;;27.35;19.48;;;28.90;1.00;;;;;;5053929;28;20053;-77
2022/08/26 09:13:31;;;;;;;32.88;25.85;;;28.90;1.00;;;;;;5053227;28;20381;-77
2022/08/26 09:16:07;;;;;;;33.28;23.50;;;29.00;1.00;;;;;;5053312;28;20041;-76
2022/08/26 09:18:40;;;;;;;;;;;29.20;1.00;;;;;;5053469;28;20040;-77
2022/08/26 09:21:10;;;;;;;25.08;19.88;;;29.50;1.00;;;;;;5053718;28;20383;-77
2022/08/26 09:23:41;;;;;;;24.10;18.40;;;29.70;1.00;;;;;;5053127;28;20045;-77
2022/08/26 09:26:16;;;;;;;27.27;20.10;;;29.80;99.90;;;;;;5053103;28;20049;-77
2022/08/26 09:28:47;;;;;;;28.30;20.25;;;29.90;1.00;;;;;;5053604;28;20087;-75
2022/08/26 09:31:21;;;;;;;33.05;19.58;;;29.90;99.90;;;;;;5053012;28;20041;-76
2022/08/26 09:33:49;;;;;;;26.42;18.02;;;29.80;1.00;;;;;;5053006;28;20485;-77
2022/08/26 09:36:25;;;;;;;22.55;15.68;;;29.90;1.00;;;;;;5053409;28;20048;-77
2022/08/26 09:38:53;;;;;;;23.60;15.65;;;29.50;1.00;;;;;;5053994;28;20073;-76
2022/08/26 09:41:30;;;;;;;20.95;16.80;;;29.10;1.00;;;;;;5053177;28;20044;-77
2022/08/26 09:44:14;;;;;;;23.33;17.42;;;29.20;1.00;;;;;;5052472;28;20515;-77
2022/08/26 09:46:47;;;;;;;20.25;17.08;;;29.30;1.00;;;;;;5053085;28;20559;-76
2022/08/26 09:49:27;;;;;;;26.58;19.25;;;29.50;1.00;;;;;;5053220;28;20041;-76
2022/08/26 09:52:07;;;;;;;23.88;18.25;;;29.70;1.00;;;;;;5052786;28;20393;-75
2022/08/26 09:54:36;;;;;;;27.73;18.60;;;29.70;1.00;;;;;;5052625;28;20037;-76
2022/08/26 09:57:17;;;;;;;23.25;17.17;;;29.90;1.00;;;;;;5053017;28;20045;-76
2022/08/26 09:59:45;;;;;;;23.58;17.75;;;30.00;1.00;;;;;;5052767;28;20103;-76
2022/08/26 10:02:36;;;;;;;28.02;17.30;;;30.00;1.00;;;;;;5052546;28;20041;-76
2022/08/26 10:05:07;;;;;;;22.98;17.00;;;30.20;1.00;;;;;;5052994;28;20041;-76
2022/08/26 10:07:41;;;;;;;28.02;16.40;;;30.30;1.00;;;;;;5034741;28;20087;-76
2022/08/26 10:10:14;;;;;;;20.92;14.15;;;30.50;1.00;;;;;;5056227;28;20071;-76
2022/08/26 10:12:49;;;;;;;19.92;15.48;;;30.50;1.00;;;;;;5038825;28;20056;-76
2022/08/26 10:15:18;;;;;;;22.92;14.45;;;30.20;1.00;;;;;;5056834;28;20033;-76
2022/08/26 10:17:53;;;;;;;22.27;15.07;;;30.40;1.00;;;;;;5056417;28;20052;-76
2022/08/26 10:20:25;;;;;;;18.70;14.43;;;30.40;1.00;;;;;;5056530;28;20120;-77
2022/08/26 10:22:57;;;;;;;26.25;13.38;;;30.40;1.00;;;;;;5056685;28;20091;-76
2022/08/26 10:25:29;;;;;;;20.70;13.40;;;30.40;1.00;;;;;;5056628;28;20056;-77
2022/08/26 10:28:03;;;;;;;19.85;14.13;;;30.40;1.00;;;;;;5056416;28;20049;-77
2022/08/26 10:30:34;;;;;;;22.17;13.80;;;30.60;1.00;;;;;;5056457;28;20047;-77
2022/08/26 10:33:07;;;;;;;22.27;14.23;;;30.60;1.00;;;;;;5056384;28;20049;-77
2022/08/26 10:35:38;;;;;;;21.10;14.55;;;30.80;1.00;;;;;;5038062;28;20045;-76
2022/08/26 10:38:11;;;;;;;17.27;14.70;;;30.90;99.90;;;;;;5056156;28;20057;-77
2022/08/26 10:40:49;;;;;;;20.85;13.95;;;31.40;99.90;;;;;;5038487;28;20045;-77
2022/08/26 10:43:21;;;;;;;18.48;14.18;;;31.40;99.90;;;;;;5055984;28;20095;-77
2022/08/26 10:45:51;;;;;;;29.63;17.08;;;31.30;49.20;;;;;;5038281;28;20099;-77
2022/08/26 10:48:27;;;;;;;21.48;14.18;;;31.30;99.90;;;;;;5056207;28;20075;-77
2022/08/26 10:50:57;;;;;;;21.23;13.77;;;31.20;99.90;;;;;;5056522;28;20064;-77
2022/08/26 10:53:34;;;;;;;23.50;13.82;;;31.20;99.90;;;;;;5055908;28;20044;-76
2022/08/26 10:56:08;;;;;;;21.52;13.65;;;31.10;99.20;;;;;;5056427;28;20094;-76
2022/08/26 10:58:53;;;;;;;18.63;12.88;;;31.10;42.60;;;;;;5055928;28;20448;-77
2022/08/26 11:01:44;;;;;;;24.83;16.00;;;31.50;99.90;;;;;;5055861;28;20041;-76
2022/08/26 11:04:50;;;;;;;22.90;15.30;;;31.50;1.00;;;;;;5056042;28;20599;-77
2022/08/26 11:07:42;;;;;;;19.80;13.63;;;31.60;99.90;;;;;;5031398;28;20052;-76
2022/08/26 11:10:26;;;;;;;24.55;16.27;;;31.70;1.00;;;;;;5056366;28;20083;-76
2022/08/26 11:12:57;;;;;;;26.25;15.50;;;31.70;1.00;;;;;;5054664;28;20045;-76
2022/08/26 11:16:09;;;;;;;23.80;14.07;;;31.90;23.00;;;;;;5055777;28;20067;-77
2022/08/26 11:18:44;;;;;;;24.65;14.35;;;32.00;1.00;;;;;;5055512;28;20041;-76
2022/08/26 11:21:45;;;;;;;23.13;16.13;;;32.50;1.00;;;;;;5054686;28;20128;-76
2022/08/26 11:24:54;;;;;;;17.27;13.80;;;32.70;99.90;;;;;;5056059;28;20104;-75
2022/08/26 11:28:06;;;;;;;27.38;17.50;;;32.90;99.90;;;;;;5055245;28;20432;-76
2022/08/26 11:30:48;;;;;;;24.17;15.82;;;33.10;99.90;;;;;;5055189;28;20484;-76
2022/08/26 11:33:58;;;;;;;27.70;15.43;;;33.20;99.90;;;;;;5055993;28;20052;-76
2022/08/26 11:36:52;;;;;;;23.23;14.80;;;33.00;99.90;;;;;;5056224;28;20075;-76
2022/08/26 11:39:27;;;;;;;23.63;14.98;;;32.80;1.00;;;;;;5055285;28;20057;-77
2022/08/26 11:41:59;;;;;;;20.60;14.93;;;32.60;99.90;;;;;;5055967;28;20045;-77
2022/08/26 11:44:36;;;;;;;23.23;15.65;;;32.50;99.90;;;;;;5055119;28;20044;-76
2022/08/26 11:47:06;;;;;;;25.52;15.40;;;32.30;99.90;;;;;;5037637;28;20056;-78
2022/08/26 11:49:34;;;;;;;21.95;16.27;;;31.90;1.00;;;;;;5055497;28;20112;-76
2022/08/26 11:52:20;;;;;;;26.35;17.23;;;31.90;99.90;;;;;;5055271;28;20099;-76
2022/08/26 11:55:01;;;;;;;27.67;17.45;;;32.10;1.00;;;;;;5056758;28;20435;-76
2022/08/26 11:57:30;;;;;;;20.98;16.02;;;32.30;1.00;;;;;;5055124;28;20044;-77
2022/08/26 11:59:58;;;;;;;27.92;17.85;;;32.10;99.90;;;;;;5055595;28;20496;-77
2022/08/26 12:02:27;;;;;;;22.65;17.80;;;32.10;44.90;;;;;;5056966;28;20115;-76
2022/08/26 12:04:56;;;;;;;27.02;18.20;;;32.10;99.90;;;;;;5055536;28;20049;-77
2022/08/26 12:07:27;;;;;;;30.13;17.67;;;32.10;99.90;;;;;;5055087;28;20045;-77
2022/08/26 12:09:57;;;;;;;19.83;17.17;;;32.20;99.90;;;;;;5055213;28;20072;-76
2022/08/26 12:12:29;;;;;;;24.15;18.65;;;32.30;1.00;;;;;;5054799;28;20048;-75
2022/08/26 12:15:10;;;;;;;24.60;16.50;;;32.40;99.90;;;;;;5037099;28;20041;-77
2022/08/26 12:17:39;;;;;;;24.85;16.50;;;32.00;99.90;;;;;;5054717;28;20043;-76
2022/08/26 12:20:16;;;;;;;30.67;15.77;;;31.80;1.00;;;;;;5054549;28;20444;-77
2022/08/26 12:22:44;;;;;;;23.40;12.43;;;31.70;99.90;;;;;;5036329;28;20052;-76
2022/08/26 12:25:12;;;;;;;20.35;11.27;;;31.70;99.90;;;;;;5054819;28;20033;-76
2022/08/26 12:27:41;;;;;;;20.40;12.00;;;31.40;1.00;;;;;;5054456;28;20045;-76
2022/08/26 12:30:11;;;;;;;14.95;11.15;;;31.20;99.90;;;;;;5054121;28;20045;-76
2022/08/26 12:32:42;;;;;;;23.58;12.25;;;31.20;99.90;;;;;;5054011;28;20060;-76
2022/08/26 12:35:12;;;;;;;22.92;13.55;;;30.90;1.00;;;;;;5057462;28;20033;-76
2022/08/26 12:37:42;;;;;;;23.38;14.20;;;30.70;1.00;;;;;;5056438;28;20049;-77
2022/08/26 12:40:27;;;;;;;17.40;9.85;;;30.70;1.00;;;;;;5055962;28;20045;-76
2022/08/26 12:42:55;;;;;;;23.43;10.10;;;30.80;1.00;;;;;;5055595;28;20057;-76
2022/08/26 12:45:28;;;;;;;18.92;10.07;;;30.60;1.00;;;;;;5054844;28;20048;-77
2022/08/26 12:48:00;;;;;;;19.00;11.35;;;30.50;99.90;;;;;;5056336;28;20420;-76
2022/08/26 12:50:30;;;;;;;21.88;10.30;;;30.40;99.90;;;;;;5037842;28;20067;-76
2022/08/26 12:53:00;;;;;;;22.05;10.35;;;30.70;99.90;;;;;;5057289;28;20064;-76
2022/08/26 12:55:38;;;;;;;19.75;12.05;;;30.80;99.90;;;;;;5063132;28;20496;-76